FAS weather

Fáskrúðsfjörður Airport
Fáskrúðsfjörður, Eastern Region, Iceland

Public forecast

Using degrees Celsius for public forecast. Weather courtesy of forecast.io.

METAR (pilot weather report)

Closest report is Egilsstaðir Airport, 22.8 nm (42.2 km) NNW. Retrieved 2019/06/16 08:00 UTC (32 minutes ago):

BIEG 160800Z 24003KT 9999 FEW011 BKN032 08/06 Q1017

TAF (pilot weather forecast)

Closest forecast is Egilsstaðir Airport, 22.8 nm (42.2 km) NNW. Retrieved 2019/06/16 09:00 UTC (0 seconds ago):

TAF BIEG 160748Z 1609/1709 36007KT 9999 BKN008 OVC020 TX14/1615Z TN04/1706Z BECMG 1610/1612 BKN035 BECMG 1613/1616 36013KT BECMG 1621/1700 5000 BR BKN005 OVC010 PROB40 1700/1706 0500 FG VV002